Time,TemperatureF,DewpointF,PressureIn,WindDirection,WindDirectionDegrees,WindSpeedMPH,WindSpeedGustMPH,Humidity,HourlyPrecipIn,Conditions,Clouds,dailyrainin,SoftwareType,DateUTC
2013-02-11 00:06:00,65.1,59.0,30.18,South,190,4.0,7.0,80,0.00,,,0.00,weatherlink.com 1.10,2013-02-11 05:06:00,
2013-02-11 00:21:00,65.1,59.0,30.16,South,182,8.0,10.0,80,0.00,,,0.00,weatherlink.com 1.10,2013-02-11 05:21:00,
2013-02-11 00:36:00,65.1,59.0,30.16,ESE,115,4.0,11.0,81,0.00,,,0.00,weatherlink.com 1.10,2013-02-11 05:36:00,
2013-02-11 00:51:00,65.2,59.0,30.17,ESE,114,2.0,7.0,81,0.00,,,0.00,weatherlink.com 1.10,2013-02-11 05:51:00,
2013-02-11 01:06:00,65.1,60.0,30.17,South,190,5.0,6.0,82,0.00,,,0.00,weatherlink.com 1.10,2013-02-11 06:06:00,
2013-02-11 01:21:00,65.2,60.0,30.16,SSW,203,6.0,7.0,82,0.00,,,0.00,weatherlink.com 1.10,2013-02-11 06:21:00,
2013-02-11 01:36:00,65.1,60.0,30.17,SW,224,5.0,14.0,83,0.00,,,0.00,weatherlink.com 1.10,2013-02-11 06:36:00,
2013-02-11 01:51:00,65.0,60.0,30.18,NW,322,1.0,5.0,84,0.00,,,0.00,weatherlink.com 1.10,2013-02-11 06:51:00,
2013-02-11 02:06:00,64.4,61.0,30.18,West,272,0.0,4.0,87,0.00,,,0.00,weatherlink.com 1.10,2013-02-11 07:06:00,
2013-02-11 02:21:00,63.2,60.0,30.18,West,273,0.0,0.0,90,0.01,,,0.01,weatherlink.com 1.10,2013-02-11 07:21:00,
2013-02-11 02:36:00,62.1,60.0,30.17,NW,320,0.0,1.0,93,0.02,,,0.02,weatherlink.com 1.10,2013-02-11 07:36:00,
2013-02-11 02:51:00,61.6,60.0,30.17,NW,320,0.0,0.0,94,0.02,,,0.02,weatherlink.com 1.10,2013-02-11 07:51:00,
2013-02-11 03:06:00,61.3,60.0,30.16,NW,321,0.0,0.0,95,0.03,,,0.03,weatherlink.com 1.10,2013-02-11 08:06:00,
2013-02-11 03:21:00,61.2,60.0,30.16,NW,320,0.0,1.0,95,0.04,,,0.05,weatherlink.com 1.10,2013-02-11 08:21:00,
2013-02-11 03:36:00,61.2,60.0,30.16,NW,320,0.0,1.0,95,0.06,,,0.08,weatherlink.com 1.10,2013-02-11 08:36:00,
2013-02-11 03:51:00,61.1,60.0,30.15,WNW,303,0.0,1.0,96,0.08,,,0.10,weatherlink.com 1.10,2013-02-11 08:51:00,
2013-02-11 04:07:00,61.1,60.0,30.15,NW,304,0.0,0.0,96,0.08,,,0.11,weatherlink.com 1.10,2013-02-11 09:07:00,
2013-02-11 04:22:00,61.0,60.0,30.14,WNW,303,0.0,0.0,96,0.08,,,0.13,weatherlink.com 1.10,2013-02-11 09:22:00,
2013-02-11 04:37:00,61.1,60.0,30.16,WNW,282,1.0,1.0,96,0.09,,,0.17,weatherlink.com 1.10,2013-02-11 09:37:00,
2013-02-11 04:52:00,61.1,60.0,30.16,West,276,0.0,1.0,96,0.15,,,0.25,weatherlink.com 1.10,2013-02-11 09:52:00,
2013-02-11 05:07:00,61.1,60.0,30.15,WNW,287,0.0,1.0,96,0.22,,,0.33,weatherlink.com 1.10,2013-02-11 10:07:00,
2013-02-11 05:22:00,61.0,60.0,30.14,WNW,291,0.0,1.0,96,0.24,,,0.38,weatherlink.com 1.10,2013-02-11 10:22:00,
2013-02-11 05:37:00,61.0,60.0,30.15,WSW,251,0.0,2.0,96,0.23,,,0.40,weatherlink.com 1.10,2013-02-11 10:37:00,
2013-02-11 05:52:00,61.0,60.0,30.13,NNE,24,0.0,2.0,96,0.19,,,0.44,weatherlink.com 1.10,2013-02-11 10:52:00,
2013-02-11 06:07:00,60.9,60.0,30.15,WNW,287,0.0,1.0,97,0.11,,,0.44,weatherlink.com 1.10,2013-02-11 11:07:00,
2013-02-11 06:22:00,61.0,60.0,30.13,WNW,283,0.0,1.0,97,0.06,,,0.44,weatherlink.com 1.10,2013-02-11 11:22:00,
2013-02-11 06:37:00,61.0,60.0,30.13,ENE,64,0.0,2.0,97,0.04,,,0.44,weatherlink.com 1.10,2013-02-11 11:37:00,
2013-02-11 06:52:00,61.0,60.0,30.15,WNW,282,0.0,1.0,97,0.00,,,0.44,weatherlink.com 1.10,2013-02-11 11:52:00,
2013-02-11 07:07:00,61.0,60.0,30.15,WSW,258,0.0,2.0,97,0.00,,,0.44,weatherlink.com 1.10,2013-02-11 12:07:00,
2013-02-11 07:22:00,61.0,60.0,30.15,NW,310,0.0,1.0,97,0.00,,,0.44,weatherlink.com 1.10,2013-02-11 12:22:00,
2013-02-11 07:37:00,60.9,60.0,30.16,NW,310,1.0,1.0,97,0.00,,,0.44,weatherlink.com 1.10,2013-02-11 12:37:00,
2013-02-11 07:52:00,60.8,60.0,30.16,NW,309,0.0,0.0,97,0.01,,,0.45,weatherlink.com 1.10,2013-02-11 12:52:00,
2013-02-11 08:07:00,60.7,60.0,30.14,SE,142,3.0,4.0,97,0.01,,,0.45,weatherlink.com 1.10,2013-02-11 13:07:00,
2013-02-11 08:22:00,60.8,60.0,30.14,NNE,12,1.0,1.0,97,0.02,,,0.46,weatherlink.com 1.10,2013-02-11 13:22:00,
2013-02-11 08:37:00,61.1,60.0,30.15,NNW,339,0.0,1.0,97,0.03,,,0.47,weatherlink.com 1.10,2013-02-11 13:37:00,
2013-02-11 08:52:00,61.5,61.0,30.14,ENE,71,0.0,2.0,97,0.02,,,0.47,weatherlink.com 1.10,2013-02-11 13:52:00,
2013-02-11 09:07:00,61.9,61.0,30.14,West,277,0.0,1.0,97,0.02,,,0.47,weatherlink.com 1.10,2013-02-11 14:07:00,
2013-02-11 09:22:00,62.2,61.0,30.15,West,270,0.0,4.0,96,0.01,,,0.47,weatherlink.com 1.10,2013-02-11 14:22:00,
2013-02-11 09:37:00,62.4,61.0,30.15,West,260,0.0,3.0,96,0.00,,,0.47,weatherlink.com 1.10,2013-02-11 14:37:00,
2013-02-11 09:52:00,62.8,62.0,30.15,WSW,243,1.0,3.0,96,0.00,,,0.47,weatherlink.com 1.10,2013-02-11 14:52:00,
2013-02-11 10:07:00,63.1,62.0,30.15,West,266,1.0,2.0,95,0.00,,,0.47,weatherlink.com 1.10,2013-02-11 15:07:00,
2013-02-11 10:22:00,63.2,62.0,30.15,West,260,0.0,4.0,95,0.00,,,0.47,weatherlink.com 1.10,2013-02-11 15:22:00,
2013-02-11 10:37:00,63.7,62.0,30.15,West,266,0.0,3.0,95,0.00,,,0.47,weatherlink.com 1.10,2013-02-11 15:37:00,
2013-02-11 10:52:00,64.9,64.0,30.16,WNW,287,0.0,3.0,95,0.00,,,0.47,weatherlink.com 1.10,2013-02-11 15:52:00,
2013-02-11 11:07:00,65.0,63.0,30.16,NW,307,0.0,1.0,94,0.01,,,0.48,weatherlink.com 1.10,2013-02-11 16:07:00,
2013-02-11 11:22:00,64.8,63.0,30.17,NW,310,1.0,2.0,95,0.01,,,0.48,weatherlink.com 1.10,2013-02-11 16:22:00,
2013-02-11 11:37:00,64.5,63.0,30.17,NNW,327,0.0,2.0,95,0.01,,,0.48,weatherlink.com 1.10,2013-02-11 16:37:00,
2013-02-11 11:52:00,64.8,63.0,30.15,NW,304,0.0,1.0,95,0.01,,,0.48,weatherlink.com 1.10,2013-02-11 16:52:00,
2013-02-11 12:07:00,65.7,64.0,30.15,West,266,1.0,2.0,93,0.00,,,0.48,weatherlink.com 1.10,2013-02-11 17:07:00,
2013-02-11 12:22:00,66.0,64.0,30.13,SW,228,2.0,5.0,92,0.00,,,0.48,weatherlink.com 1.10,2013-02-11 17:22:00,
2013-02-11 12:37:00,65.9,64.0,30.13,West,275,1.0,3.0,92,0.00,,,0.48,weatherlink.com 1.10,2013-02-11 17:37:00,
2013-02-11 12:52:00,65.8,64.0,30.12,SW,231,2.0,4.0,93,0.00,,,0.48,weatherlink.com 1.10,2013-02-11 17:52:00,
2013-02-11 13:07:00,65.5,64.0,30.11,West,260,1.0,2.0,93,0.00,,,0.48,weatherlink.com 1.10,2013-02-11 18:07:00,
2013-02-11 13:22:00,66.0,64.0,30.10,SW,225,3.0,4.0,94,0.00,,,0.48,weatherlink.com 1.10,2013-02-11 18:22:00,
2013-02-11 13:37:00,66.9,65.0,30.09,WNW,289,1.0,2.0,93,0.00,,,0.48,weatherlink.com 1.10,2013-02-11 18:37:00,
2013-02-11 13:52:00,67.7,65.0,30.09,SSW,203,2.0,5.0,91,0.00,,,0.48,weatherlink.com 1.10,2013-02-11 18:52:00,
2013-02-11 14:07:00,68.0,65.0,30.07,NNW,340,0.0,5.0,90,0.00,,,0.48,weatherlink.com 1.10,2013-02-11 19:07:00,
2013-02-11 14:22:00,68.4,65.0,30.07,WSW,254,0.0,3.0,89,0.00,,,0.48,weatherlink.com 1.10,2013-02-11 19:22:00,
2013-02-11 14:37:00,68.9,66.0,30.07,West,272,1.0,4.0,89,0.00,,,0.48,weatherlink.com 1.10,2013-02-11 19:37:00,
2013-02-11 14:52:00,69.6,66.0,30.07,West,263,2.0,4.0,87,0.00,,,0.48,weatherlink.com 1.10,2013-02-11 19:52:00,
2013-02-11 15:07:00,69.5,66.0,30.07,WSW,249,0.0,3.0,87,0.00,,,0.48,weatherlink.com 1.10,2013-02-11 20:07:00,
2013-02-11 15:22:00,69.3,66.0,30.07,West,272,0.0,2.0,88,0.00,,,0.48,weatherlink.com 1.10,2013-02-11 20:22:00,
2013-02-11 15:37:00,69.2,66.0,30.07,WNW,303,0.0,1.0,89,0.00,,,0.48,weatherlink.com 1.10,2013-02-11 20:37:00,
2013-02-11 15:52:00,68.4,66.0,30.09,WNW,303,0.0,1.0,92,0.00,,,0.48,weatherlink.com 1.10,2013-02-11 20:52:00,
2013-02-11 16:07:00,67.8,66.0,30.08,NW,312,0.0,1.0,93,0.00,,,0.48,weatherlink.com 1.10,2013-02-11 21:07:00,
2013-02-11 16:22:00,67.5,66.0,30.08,NW,313,0.0,1.0,93,0.00,,,0.48,weatherlink.com 1.10,2013-02-11 21:22:00,
2013-02-11 16:37:00,67.1,65.0,30.06,NW,326,0.0,2.0,94,0.01,,,0.49,weatherlink.com 1.10,2013-02-11 21:37:00,
2013-02-11 16:52:00,66.7,65.0,30.07,NNW,327,0.0,1.0,95,0.02,,,0.50,weatherlink.com 1.10,2013-02-11 21:52:00,
2013-02-11 17:07:00,66.2,65.0,30.08,NW,323,0.0,1.0,95,0.02,,,0.50,weatherlink.com 1.10,2013-02-11 22:07:00,
2013-02-11 17:22:00,65.8,65.0,30.08,WNW,302,0.0,0.0,96,0.02,,,0.50,weatherlink.com 1.10,2013-02-11 22:22:00,
2013-02-11 17:37:00,65.4,64.0,30.08,West,275,2.0,2.0,96,0.01,,,0.50,weatherlink.com 1.10,2013-02-11 22:37:00,
2013-02-11 17:52:00,64.9,64.0,30.08,North,357,0.0,4.0,96,0.00,,,0.50,weatherlink.com 1.10,2013-02-11 22:52:00,
2013-02-11 18:07:00,64.5,63.0,30.08,NNW,327,0.0,2.0,96,0.00,,,0.50,weatherlink.com 1.10,2013-02-11 23:07:00,
2013-02-11 18:22:00,63.8,63.0,30.08,NNW,340,0.0,5.0,96,0.01,,,0.51,weatherlink.com 1.10,2013-02-11 23:22:00,
2013-02-11 18:37:00,63.4,62.0,30.08,NNW,331,1.0,3.0,96,0.13,,,0.63,weatherlink.com 1.10,2013-02-11 23:37:00,
2013-02-11 18:52:00,63.1,62.0,30.09,WNW,299,0.0,2.0,96,0.27,,,0.77,weatherlink.com 1.10,2013-02-11 23:52:00,
2013-02-11 19:07:00,62.6,62.0,30.09,NW,322,0.0,2.0,97,0.34,,,0.84,weatherlink.com 1.10,2013-02-12 00:07:00,
2013-02-11 19:22:00,62.5,62.0,30.10,NW,312,0.0,1.0,97,0.38,,,0.90,weatherlink.com 1.10,2013-02-12 00:22:00,
2013-02-11 19:38:00,62.4,62.0,30.10,NNW,333,0.0,1.0,97,0.30,,,0.94,weatherlink.com 1.10,2013-02-12 00:38:00,
2013-02-11 19:53:00,62.1,61.0,30.10,NW,306,0.0,1.0,97,0.17,,,0.94,weatherlink.com 1.10,2013-02-12 00:53:00,
2013-02-11 20:08:00,61.9,61.0,30.10,NW,306,0.0,1.0,97,0.11,,,0.95,weatherlink.com 1.10,2013-02-12 01:08:00,
2013-02-11 20:23:00,61.9,61.0,30.11,NW,307,2.0,2.0,97,0.12,,,1.02,weatherlink.com 1.10,2013-02-12 01:23:00,
2013-02-11 20:38:00,61.7,61.0,30.09,NW,320,1.0,3.0,97,0.14,,,1.08,weatherlink.com 1.10,2013-02-12 01:38:00,
2013-02-11 20:53:00,61.3,61.0,30.10,WNW,301,0.0,3.0,97,0.16,,,1.10,weatherlink.com 1.10,2013-02-12 01:53:00,
2013-02-11 21:08:00,61.1,60.0,30.09,NNW,334,0.0,2.0,97,0.19,,,1.14,weatherlink.com 1.10,2013-02-12 02:08:00,
2013-02-11 21:23:00,60.9,60.0,30.11,NW,308,0.0,1.0,97,0.13,,,1.16,weatherlink.com 1.10,2013-02-12 02:23:00,
2013-02-11 21:38:00,60.8,60.0,30.10,NW,308,0.0,1.0,97,0.10,,,1.18,weatherlink.com 1.10,2013-02-12 02:38:00,
2013-02-11 21:53:00,60.5,60.0,30.09,NW,309,0.0,1.0,97,0.08,,,1.18,weatherlink.com 1.10,2013-02-12 02:53:00,
2013-02-11 22:08:00,60.2,59.0,30.08,SW,234,2.0,2.0,97,0.03,,,1.18,weatherlink.com 1.10,2013-02-12 03:08:00,
2013-02-11 22:23:00,60.0,59.0,30.07,NE,52,0.0,2.0,97,0.02,,,1.18,weatherlink.com 1.10,2013-02-12 03:23:00,
2013-02-11 22:38:00,60.1,59.0,30.10,NW,317,0.0,2.0,97,0.03,,,1.21,weatherlink.com 1.10,2013-02-12 03:38:00,
2013-02-11 22:53:00,60.0,59.0,30.09,NW,317,0.0,1.0,97,0.05,,,1.23,weatherlink.com 1.10,2013-02-12 03:53:00,
2013-02-11 23:23:00,59.9,59.0,30.11,NW,306,0.0,1.0,98,0.07,,,1.25,weatherlink.com 1.10,2013-02-12 04:23:00,
2013-02-11 23:38:00,59.9,59.0,30.10,NW,307,0.0,1.0,98,0.05,,,1.26,weatherlink.com 1.10,2013-02-12 04:38:00,
2013-02-11 23:53:00,59.9,59.0,30.10,NNW,329,0.0,2.0,98,0.03,,,1.26,weatherlink.com 1.10,2013-02-12 04:53:00,